This is the latest recevied weather packets stored in our database for station/object DG1ROH. If no packets are shown the sender has not sent any weather packets the latest 1 day(s).
| Time | Temp. | Humidity | Pressure | Rain* | Wind** | Luminosity | Snow |
|---|---|---|---|---|---|---|---|
| 1778054901 | 10° C | 94% | 1005 hPa | 4.06 mm | - | 37 W/m² | - |
| 1778054778 | 10° C | 94% | 1005 hPa | 3.81 mm | - | 33 W/m² | - |
| 1778054658 | 10° C | 94% | 1005 hPa | 3.81 mm | - | 30 W/m² | - |
| 1778054539 | 10° C | 94% | 1005 hPa | 3.56 mm | - | 30 W/m² | - |
| 1778054422 | 10° C | 94% | 1005 hPa | 3.3 mm | - | 30 W/m² | - |
| 1778054179 | 10° C | 94% | 1004.9 hPa | 3.3 mm | - | 33 W/m² | - |
| 1778054059 | 10° C | 94% | 1004.9 hPa | 3.3 mm | - | 39 W/m² | - |
| 1778053574 | 10° C | 94% | 1004.9 hPa | 3.05 mm | - | 35 W/m² | - |
| 1778053454 | 10° C | 94% | 1004.9 hPa | 3.05 mm | - | 42 W/m² | - |
| 1778053212 | 10° C | 94% | 1004.8 hPa | 2.79 mm | - | 37 W/m² | - |
| 1778053092 | 10° C | 94% | 1004.7 hPa | 2.54 mm | - | 40 W/m² | - |
| 1778052851 | 10° C | 94% | 1004.7 hPa | 2.29 mm | - | 49 W/m² | - |
| 1778052727 | 10° C | 94% | 1004.7 hPa | 2.29 mm | - | 44 W/m² | - |
| 1778052607 | 10° C | 94% | 1004.7 hPa | 2.29 mm | - | 35 W/m² | - |
| 1778052365 | 10° C | 94% | 1004.7 hPa | 2.03 mm | - | 40 W/m² | - |
| 1778052124 | 10° C | 94% | 1004.6 hPa | 1.78 mm | - | 39 W/m² | - |
| 1778051044 | 10° C | 94% | 1004.5 hPa | 0.76 mm | - | 18 W/m² | - |
| 1778050922 | 10° C | 94% | 1004.5 hPa | 1.02 mm | - | 16 W/m² | - |
| 1778050563 | 10° C | 94% | 1004.4 hPa | 0.76 mm | - | 26 W/m² | - |
| 1778050445 | 10° C | 94% | 1004.4 hPa | 0.76 mm | - | 28 W/m² | - |
| 1778050323 | 10° C | 94% | 1004.4 hPa | 0.76 mm | - | 33 W/m² | - |
| 1778050204 | 10° C | 94% | 1004.3 hPa | 0.76 mm | - | 33 W/m² | - |
| 1778050084 | 10° C | 94% | 1004.4 hPa | 0.76 mm | - | 39 W/m² | - |
| 1778049845 | 10° C | 94% | 1004.3 hPa | 0.76 mm | - | 40 W/m² | - |
| 1778049724 | 10° C | 94% | 1004.2 hPa | 0.76 mm | - | 44 W/m² | - |
* Rain latest hour (hover to see other rain measurements)
** Current wind speed in m/s (hover to see current wind gust speed)